sensor_id;sensor_type;location;lat;lon;timestamp;pressure;altitude;pressure_sealevel;temperature;humidity
11878;BME280;5998;42.676;23.268;2024-01-15T00:00:57;94254.25;;;-1.66;100.00
11878;BME280;5998;42.676;23.268;2024-01-15T00:03:24;94242.56;;;-1.89;100.00
11878;BME280;5998;42.676;23.268;2024-01-15T00:05:50;94246.84;;;-1.93;100.00
11878;BME280;5998;42.676;23.268;2024-01-15T00:08:17;94237.88;;;-1.97;100.00
11878;BME280;5998;42.676;23.268;2024-01-15T00:10:44;94238.38;;;-1.95;100.00
11878;BME280;5998;42.676;23.268;2024-01-15T00:13:10;94238.72;;;-2.01;100.00
11878;BME280;5998;42.676;23.268;2024-01-15T00:15:37;94227.97;;;-2.10;100.00
11878;BME280;5998;42.676;23.268;2024-01-15T00:18:05;94231.94;;;-2.12;100.00
11878;BME280;5998;42.676;23.268;2024-01-15T00:20:32;94239.91;;;-2.17;100.00
11878;BME280;5998;42.676;23.268;2024-01-15T00:22:59;94235.00;;;-2.00;100.00
11878;BME280;5998;42.676;23.268;2024-01-15T00:25:25;94245.66;;;-2.15;100.00
11878;BME280;5998;42.676;23.268;2024-01-15T00:27:52;94249.28;;;-2.45;100.00
11878;BME280;5998;42.676;23.268;2024-01-15T00:30:19;94249.28;;;-2.45;100.00
11878;BME280;5998;42.676;23.268;2024-01-15T00:32:45;94250.25;;;-2.31;100.00
11878;BME280;5998;42.676;23.268;2024-01-15T00:35:13;94244.94;;;-2.26;100.00
11878;BME280;5998;42.676;23.268;2024-01-15T00:37:40;94251.59;;;-2.33;100.00
11878;BME280;5998;42.676;23.268;2024-01-15T00:40:08;94241.53;;;-2.26;100.00
11878;BME280;5998;42.676;23.268;2024-01-15T00:42:34;94241.75;;;-2.18;100.00
11878;BME280;5998;42.676;23.268;2024-01-15T00:45:01;94258.59;;;-2.19;100.00
11878;BME280;5998;42.676;23.268;2024-01-15T00:47:28;94250.84;;;-2.39;100.00
11878;BME280;5998;42.676;23.268;2024-01-15T00:49:54;94248.94;;;-2.28;100.00
11878;BME280;5998;42.676;23.268;2024-01-15T00:52:22;94244.28;;;-2.08;100.00
11878;BME280;5998;42.676;23.268;2024-01-15T00:54:49;94242.16;;;-2.01;100.00
11878;BME280;5998;42.676;23.268;2024-01-15T00:57:16;94238.38;;;-1.90;100.00
11878;BME280;5998;42.676;23.268;2024-01-15T00:59:44;94229.97;;;-1.97;100.00
11878;BME280;5998;42.676;23.268;2024-01-15T01:02:11;94241.66;;;-1.74;100.00
11878;BME280;5998;42.676;23.268;2024-01-15T01:04:38;94232.66;;;-1.68;100.00
11878;BME280;5998;42.676;23.268;2024-01-15T01:07:04;94226.28;;;-1.67;100.00
11878;BME280;5998;42.676;23.268;2024-01-15T01:09:32;94226.47;;;-1.58;100.00
11878;BME280;5998;42.676;23.268;2024-01-15T01:11:59;94237.41;;;-1.41;100.00
11878;BME280;5998;42.676;23.268;2024-01-15T01:14:26;94235.31;;;-1.44;100.00
11878;BME280;5998;42.676;23.268;2024-01-15T01:16:52;94232.56;;;-1.58;100.00
11878;BME280;5998;42.676;23.268;2024-01-15T01:19:19;94230.75;;;-1.62;100.00
11878;BME280;5998;42.676;23.268;2024-01-15T01:21:46;94230.47;;;-1.61;100.00
11878;BME280;5998;42.676;23.268;2024-01-15T01:24:12;94221.25;;;-1.63;100.00
11878;BME280;5998;42.676;23.268;2024-01-15T01:26:41;94219.34;;;-1.58;100.00
11878;BME280;5998;42.676;23.268;2024-01-15T01:29:07;94216.53;;;-1.66;100.00
11878;BME280;5998;42.676;23.268;2024-01-15T01:31:34;94203.81;;;-1.64;100.00
11878;BME280;5998;42.676;23.268;2024-01-15T01:34:01;94211.75;;;-1.64;100.00
11878;BME280;5998;42.676;23.268;2024-01-15T01:36:27;94205.47;;;-1.68;100.00
11878;BME280;5998;42.676;23.268;2024-01-15T01:38:54;94203.63;;;-1.73;100.00
11878;BME280;5998;42.676;23.268;2024-01-15T01:41:21;94204.13;;;-1.66;100.00
11878;BME280;5998;42.676;23.268;2024-01-15T01:43:50;94208.78;;;-1.58;100.00
11878;BME280;5998;42.676;23.268;2024-01-15T01:46:17;94200.63;;;-1.61;100.00
11878;BME280;5998;42.676;23.268;2024-01-15T01:48:44;94202.47;;;-1.62;100.00
11878;BME280;5998;42.676;23.268;2024-01-15T01:51:11;94197.19;;;-1.62;100.00
11878;BME280;5998;42.676;23.268;2024-01-15T01:53:38;94195.97;;;-1.69;100.00
11878;BME280;5998;42.676;23.268;2024-01-15T01:56:05;94192.50;;;-1.65;100.00
11878;BME280;5998;42.676;23.268;2024-01-15T01:58:33;94182.53;;;-1.73;100.00
11878;BME280;5998;42.676;23.268;2024-01-15T02:01:01;94197.78;;;-1.65;100.00
11878;BME280;5998;42.676;23.268;2024-01-15T02:03:29;94194.84;;;-1.63;100.00
11878;BME280;5998;42.676;23.268;2024-01-15T02:05:56;94167.84;;;-1.79;100.00
11878;BME280;5998;42.676;23.268;2024-01-15T02:08:23;94196.88;;;-1.55;100.00
11878;BME280;5998;42.676;23.268;2024-01-15T02:10:50;94188.34;;;-1.47;100.00
11878;BME280;5998;42.676;23.268;2024-01-15T02:13:17;94176.63;;;-1.36;100.00
11878;BME280;5998;42.676;23.268;2024-01-15T02:15:44;94156.25;;;-1.54;100.00
11878;BME280;5998;42.676;23.268;2024-01-15T02:18:12;94132.38;;;-1.73;100.00
11878;BME280;5998;42.676;23.268;2024-01-15T02:20:39;94172.03;;;-1.49;100.00
11878;BME280;5998;42.676;23.268;2024-01-15T02:23:09;94142.13;;;-1.68;100.00
11878;BME280;5998;42.676;23.268;2024-01-15T02:25:37;94123.41;;;-1.72;100.00
11878;BME280;5998;42.676;23.268;2024-01-15T02:28:05;94132.25;;;-1.87;100.00
11878;BME280;5998;42.676;23.268;2024-01-15T02:30:34;94120.84;;;-1.77;100.00
11878;BME280;5998;42.676;23.268;2024-01-15T02:33:03;94132.91;;;-1.71;100.00
11878;BME280;5998;42.676;23.268;2024-01-15T02:35:30;94132.13;;;-1.71;100.00
11878;BME280;5998;42.676;23.268;2024-01-15T02:37:56;94141.16;;;-1.77;100.00
11878;BME280;5998;42.676;23.268;2024-01-15T02:40:24;94136.53;;;-1.91;100.00
11878;BME280;5998;42.676;23.268;2024-01-15T02:42:51;94132.22;;;-2.10;100.00
11878;BME280;5998;42.676;23.268;2024-01-15T02:45:18;94131.97;;;-2.09;100.00
11878;BME280;5998;42.676;23.268;2024-01-15T02:47:45;94124.81;;;-2.08;100.00
11878;BME280;5998;42.676;23.268;2024-01-15T02:50:11;94123.28;;;-2.09;100.00
11878;BME280;5998;42.676;23.268;2024-01-15T02:52:38;94128.31;;;-2.13;100.00
11878;BME280;5998;42.676;23.268;2024-01-15T02:55:06;94110.81;;;-2.32;100.00
11878;BME280;5998;42.676;23.268;2024-01-15T02:57:34;94112.47;;;-2.13;100.00
11878;BME280;5998;42.676;23.268;2024-01-15T03:00:01;94114.81;;;-2.11;100.00
11878;BME280;5998;42.676;23.268;2024-01-15T03:02:28;94122.38;;;-2.00;100.00
11878;BME280;5998;42.676;23.268;2024-01-15T03:04:56;94125.84;;;-2.04;100.00
11878;BME280;5998;42.676;23.268;2024-01-15T03:07:23;94125.97;;;-2.14;100.00
11878;BME280;5998;42.676;23.268;2024-01-15T03:09:50;94125.97;;;-2.19;100.00
11878;BME280;5998;42.676;23.268;2024-01-15T03:12:17;94121.50;;;-2.19;100.00
11878;BME280;5998;42.676;23.268;2024-01-15T03:14:45;94109.97;;;-1.99;100.00
11878;BME280;5998;42.676;23.268;2024-01-15T03:17:12;94114.41;;;-1.95;100.00
11878;BME280;5998;42.676;23.268;2024-01-15T03:19:38;94103.94;;;-1.76;100.00
11878;BME280;5998;42.676;23.268;2024-01-15T03:22:05;94098.69;;;-1.81;100.00
11878;BME280;5998;42.676;23.268;2024-01-15T03:24:34;94106.22;;;-1.93;100.00
11878;BME280;5998;42.676;23.268;2024-01-15T03:27:01;94099.13;;;-1.98;100.00
11878;BME280;5998;42.676;23.268;2024-01-15T03:29:27;94105.59;;;-2.09;100.00
11878;BME280;5998;42.676;23.268;2024-01-15T03:31:56;94104.56;;;-2.13;100.00
11878;BME280;5998;42.676;23.268;2024-01-15T03:34:22;94105.38;;;-2.12;100.00
11878;BME280;5998;42.676;23.268;2024-01-15T03:36:49;94082.84;;;-2.28;100.00
11878;BME280;5998;42.676;23.268;2024-01-15T03:39:16;94072.06;;;-2.32;100.00
11878;BME280;5998;42.676;23.268;2024-01-15T03:41:42;94102.28;;;-2.24;100.00
11878;BME280;5998;42.676;23.268;2024-01-15T03:44:09;94109.25;;;-2.05;100.00
11878;BME280;5998;42.676;23.268;2024-01-15T03:46:36;94104.47;;;-2.03;100.00
11878;BME280;5998;42.676;23.268;2024-01-15T03:49:04;94100.81;;;-2.07;100.00
11878;BME280;5998;42.676;23.268;2024-01-15T03:51:31;94110.72;;;-1.94;100.00
11878;BME280;5998;42.676;23.268;2024-01-15T03:53:57;94101.63;;;-1.83;100.00
11878;BME280;5998;42.676;23.268;2024-01-15T03:56:24;94100.22;;;-1.75;100.00
11878;BME280;5998;42.676;23.268;2024-01-15T03:58:51;94095.56;;;-1.83;100.00
11878;BME280;5998;42.676;23.268;2024-01-15T04:01:17;94097.09;;;-1.77;100.00
11878;BME280;5998;42.676;23.268;2024-01-15T04:03:44;94088.06;;;-1.71;100.00
11878;BME280;5998;42.676;23.268;2024-01-15T04:06:12;94081.44;;;-1.68;100.00
11878;BME280;5998;42.676;23.268;2024-01-15T04:08:39;94089.41;;;-1.73;100.00
11878;BME280;5998;42.676;23.268;2024-01-15T04:11:05;94079.78;;;-1.88;100.00
11878;BME280;5998;42.676;23.268;2024-01-15T04:13:32;94089.72;;;-2.04;100.00
11878;BME280;5998;42.676;23.268;2024-01-15T04:16:00;94086.06;;;-2.08;100.00
11878;BME280;5998;42.676;23.268;2024-01-15T04:18:26;94092.72;;;-2.15;100.00
11878;BME280;5998;42.676;23.268;2024-01-15T04:20:53;94081.00;;;-2.33;100.00
11878;BME280;5998;42.676;23.268;2024-01-15T04:23:21;94085.31;;;-2.42;100.00
11878;BME280;5998;42.676;23.268;2024-01-15T04:25:48;94091.81;;;-2.63;100.00
11878;BME280;5998;42.676;23.268;2024-01-15T04:28:15;94079.91;;;-2.61;100.00
11878;BME280;5998;42.676;23.268;2024-01-15T04:30:41;94087.44;;;-2.44;100.00
11878;BME280;5998;42.676;23.268;2024-01-15T04:33:08;94091.84;;;-2.34;100.00
11878;BME280;5998;42.676;23.268;2024-01-15T04:35:35;94091.78;;;-2.29;100.00
11878;BME280;5998;42.676;23.268;2024-01-15T04:38:01;94088.84;;;-2.23;100.00
11878;BME280;5998;42.676;23.268;2024-01-15T04:40:29;94086.41;;;-2.14;100.00
11878;BME280;5998;42.676;23.268;2024-01-15T04:42:56;94087.09;;;-2.04;100.00
11878;BME280;5998;42.676;23.268;2024-01-15T04:45:23;94079.34;;;-1.95;100.00
11878;BME280;5998;42.676;23.268;2024-01-15T04:47:53;94076.78;;;-2.05;100.00
11878;BME280;5998;42.676;23.268;2024-01-15T04:50:21;94036.63;;;-2.21;100.00
11878;BME280;5998;42.676;23.268;2024-01-15T04:52:47;94068.09;;;-2.06;100.00
11878;BME280;5998;42.676;23.268;2024-01-15T04:55:14;94054.47;;;-2.13;100.00
11878;BME280;5998;42.676;23.268;2024-01-15T04:57:42;94056.50;;;-2.05;100.00
11878;BME280;5998;42.676;23.268;2024-01-15T05:00:10;94057.53;;;-2.06;100.00
11878;BME280;5998;42.676;23.268;2024-01-15T05:02:37;94052.00;;;-2.04;100.00
11878;BME280;5998;42.676;23.268;2024-01-15T05:05:04;94052.97;;;-2.48;100.00
11878;BME280;5998;42.676;23.268;2024-01-15T05:07:30;94054.84;;;-2.24;100.00
11878;BME280;5998;42.676;23.268;2024-01-15T05:09:57;94044.34;;;-2.29;100.00
11878;BME280;5998;42.676;23.268;2024-01-15T05:12:24;94044.53;;;-2.50;100.00
11878;BME280;5998;42.676;23.268;2024-01-15T05:14:52;94051.75;;;-2.31;100.00
11878;BME280;5998;42.676;23.268;2024-01-15T05:17:19;94052.97;;;-2.81;100.00
11878;BME280;5998;42.676;23.268;2024-01-15T05:19:45;94066.38;;;-2.78;100.00
11878;BME280;5998;42.676;23.268;2024-01-15T05:22:12;94049.13;;;-2.65;100.00
11878;BME280;5998;42.676;23.268;2024-01-15T05:24:40;94050.69;;;-2.59;100.00
11878;BME280;5998;42.676;23.268;2024-01-15T05:27:06;94055.44;;;-2.61;100.00
11878;BME280;5998;42.676;23.268;2024-01-15T05:29:33;94055.06;;;-2.50;100.00
11878;BME280;5998;42.676;23.268;2024-01-15T05:32:01;94056.00;;;-2.35;100.00
11878;BME280;5998;42.676;23.268;2024-01-15T05:34:28;94054.09;;;-2.30;100.00
11878;BME280;5998;42.676;23.268;2024-01-15T05:36:54;94042.75;;;-2.25;100.00
11878;BME280;5998;42.676;23.268;2024-01-15T05:39:21;94053.44;;;-2.17;100.00
11878;BME280;5998;42.676;23.268;2024-01-15T05:41:47;94047.28;;;-2.07;100.00
11878;BME280;5998;42.676;23.268;2024-01-15T05:44:14;94045.66;;;-2.03;100.00
11878;BME280;5998;42.676;23.268;2024-01-15T05:46:41;94036.84;;;-1.94;100.00
11878;BME280;5998;42.676;23.268;2024-01-15T05:49:09;94019.44;;;-1.95;100.00
11878;BME280;5998;42.676;23.268;2024-01-15T05:51:35;94031.59;;;-1.94;100.00
11878;BME280;5998;42.676;23.268;2024-01-15T05:54:02;94020.06;;;-2.03;100.00
11878;BME280;5998;42.676;23.268;2024-01-15T05:56:29;94035.75;;;-1.88;100.00
11878;BME280;5998;42.676;23.268;2024-01-15T05:58:56;94035.28;;;-1.71;100.00
11878;BME280;5998;42.676;23.268;2024-01-15T06:01:22;94037.53;;;-1.83;100.00
11878;BME280;5998;42.676;23.268;2024-01-15T06:03:49;94025.34;;;-1.79;100.00
11878;BME280;5998;42.676;23.268;2024-01-15T06:06:17;94012.06;;;-1.93;100.00
11878;BME280;5998;42.676;23.268;2024-01-15T06:08:43;94020.19;;;-1.89;100.00
11878;BME280;5998;42.676;23.268;2024-01-15T06:11:10;94026.19;;;-2.07;100.00
11878;BME280;5998;42.676;23.268;2024-01-15T06:13:37;94024.00;;;-2.00;100.00
11878;BME280;5998;42.676;23.268;2024-01-15T06:16:12;94030.69;;;-2.08;100.00
11878;BME280;5998;42.676;23.268;2024-01-15T06:18:39;94044.78;;;-2.22;100.00
11878;BME280;5998;42.676;23.268;2024-01-15T06:21:06;94014.38;;;-2.39;100.00
11878;BME280;5998;42.676;23.268;2024-01-15T06:23:34;94026.13;;;-2.26;100.00
11878;BME280;5998;42.676;23.268;2024-01-15T06:26:00;94014.13;;;-2.13;100.00
11878;BME280;5998;42.676;23.268;2024-01-15T06:28:29;94024.66;;;-2.13;100.00
11878;BME280;5998;42.676;23.268;2024-01-15T06:30:55;94025.41;;;-2.08;100.00
11878;BME280;5998;42.676;23.268;2024-01-15T06:33:22;94031.09;;;-1.96;100.00
11878;BME280;5998;42.676;23.268;2024-01-15T06:35:49;94028.25;;;-1.81;100.00
11878;BME280;5998;42.676;23.268;2024-01-15T06:38:16;94022.66;;;-1.74;100.00
11878;BME280;5998;42.676;23.268;2024-01-15T06:40:44;93996.03;;;-2.25;100.00
11878;BME280;5998;42.676;23.268;2024-01-15T06:43:10;94038.75;;;-1.99;100.00
11878;BME280;5998;42.676;23.268;2024-01-15T06:45:37;94040.88;;;-1.77;100.00
11878;BME280;5998;42.676;23.268;2024-01-15T06:48:05;94038.41;;;-1.69;100.00
11878;BME280;5998;42.676;23.268;2024-01-15T06:50:33;94032.69;;;-1.52;100.00
11878;BME280;5998;42.676;23.268;2024-01-15T06:52:59;93993.81;;;-1.47;100.00
11878;BME280;5998;42.676;23.268;2024-01-15T06:55:26;94022.72;;;-0.99;100.00
11878;BME280;5998;42.676;23.268;2024-01-15T06:57:54;94030.31;;;-0.79;100.00
11878;BME280;5998;42.676;23.268;2024-01-15T07:00:21;94034.47;;;-0.73;100.00
11878;BME280;5998;42.676;23.268;2024-01-15T07:02:48;94043.53;;;-0.79;100.00
11878;BME280;5998;42.676;23.268;2024-01-15T07:05:14;94043.47;;;-0.93;100.00
11878;BME280;5998;42.676;23.268;2024-01-15T07:07:41;94042.47;;;-0.78;100.00
11878;BME280;5998;42.676;23.268;2024-01-15T07:10:08;94045.97;;;-0.64;100.00
11878;BME280;5998;42.676;23.268;2024-01-15T07:12:35;94042.94;;;-0.57;100.00
11878;BME280;5998;42.676;23.268;2024-01-15T07:15:04;94037.97;;;-0.45;100.00
11878;BME280;5998;42.676;23.268;2024-01-15T07:17:32;94042.81;;;-0.34;100.00
11878;BME280;5998;42.676;23.268;2024-01-15T07:19:59;94027.56;;;-0.23;100.00
11878;BME280;5998;42.676;23.268;2024-01-15T07:22:25;94028.53;;;-0.19;100.00
11878;BME280;5998;42.676;23.268;2024-01-15T07:24:52;94031.69;;;-0.17;100.00
11878;BME280;5998;42.676;23.268;2024-01-15T07:27:19;94026.69;;;-0.05;100.00
11878;BME280;5998;42.676;23.268;2024-01-15T07:29:47;94023.38;;;0.03;100.00
11878;BME280;5998;42.676;23.268;2024-01-15T07:32:15;94014.72;;;-0.03;100.00
11878;BME280;5998;42.676;23.268;2024-01-15T07:34:42;94015.22;;;-0.28;100.00
11878;BME280;5998;42.676;23.268;2024-01-15T07:37:08;94010.22;;;-0.02;100.00
11878;BME280;5998;42.676;23.268;2024-01-15T07:39:36;94013.66;;;-0.02;100.00
11878;BME280;5998;42.676;23.268;2024-01-15T07:42:03;94017.59;;;0.28;100.00
11878;BME280;5998;42.676;23.268;2024-01-15T07:44:30;94024.66;;;0.46;100.00
11878;BME280;5998;42.676;23.268;2024-01-15T07:46:57;94018.38;;;0.56;100.00
11878;BME280;5998;42.676;23.268;2024-01-15T07:49:25;94032.19;;;0.67;100.00
11878;BME280;5998;42.676;23.268;2024-01-15T07:51:51;94029.94;;;0.74;100.00
11878;BME280;5998;42.676;23.268;2024-01-15T07:54:18;94031.69;;;0.65;100.00
11878;BME280;5998;42.676;23.268;2024-01-15T07:56:54;94015.75;;;0.92;100.00
11878;BME280;5998;42.676;23.268;2024-01-15T07:59:21;93990.13;;;0.51;100.00
11878;BME280;5998;42.676;23.268;2024-01-15T08:01:48;93994.63;;;0.65;100.00
11878;BME280;5998;42.676;23.268;2024-01-15T08:04:15;93990.22;;;0.96;100.00
11878;BME280;5998;42.676;23.268;2024-01-15T08:06:43;93999.53;;;1.29;100.00
11878;BME280;5998;42.676;23.268;2024-01-15T08:09:10;94000.72;;;1.01;100.00
11878;BME280;5998;42.676;23.268;2024-01-15T08:11:39;94001.19;;;1.03;100.00
11878;BME280;5998;42.676;23.268;2024-01-15T08:14:06;94016.63;;;1.23;100.00
11878;BME280;5998;42.676;23.268;2024-01-15T08:16:33;94015.53;;;1.46;100.00
11878;BME280;5998;42.676;23.268;2024-01-15T08:19:00;94012.59;;;1.48;100.00
11878;BME280;5998;42.676;23.268;2024-01-15T08:21:26;94029.50;;;1.83;100.00
11878;BME280;5998;42.676;23.268;2024-01-15T08:23:56;94029.25;;;1.93;100.00
11878;BME280;5998;42.676;23.268;2024-01-15T08:26:23;94021.75;;;1.86;100.00
11878;BME280;5998;42.676;23.268;2024-01-15T08:28:50;94023.38;;;1.73;100.00
11878;BME280;5998;42.676;23.268;2024-01-15T08:31:16;94018.78;;;1.21;100.00
11878;BME280;5998;42.676;23.268;2024-01-15T08:33:43;94005.19;;;1.36;100.00
11878;BME280;5998;42.676;23.268;2024-01-15T08:36:10;94011.78;;;1.92;100.00
11878;BME280;5998;42.676;23.268;2024-01-15T08:38:37;94005.81;;;2.17;100.00
11878;BME280;5998;42.676;23.268;2024-01-15T08:41:05;93994.44;;;2.33;100.00
11878;BME280;5998;42.676;23.268;2024-01-15T08:43:33;93986.63;;;2.37;100.00
11878;BME280;5998;42.676;23.268;2024-01-15T08:46:00;93991.41;;;2.66;100.00
11878;BME280;5998;42.676;23.268;2024-01-15T08:48:27;94006.28;;;2.75;100.00
11878;BME280;5998;42.676;23.268;2024-01-15T08:50:54;93986.13;;;2.83;100.00
11878;BME280;5998;42.676;23.268;2024-01-15T08:53:21;93975.34;;;3.14;100.00
11878;BME280;5998;42.676;23.268;2024-01-15T08:55:48;93968.94;;;3.06;100.00
11878;BME280;5998;42.676;23.268;2024-01-15T08:58:16;93977.69;;;3.24;100.00
11878;BME280;5998;42.676;23.268;2024-01-15T09:00:43;93958.75;;;3.34;100.00
11878;BME280;5998;42.676;23.268;2024-01-15T09:03:10;93963.44;;;3.28;100.00
11878;BME280;5998;42.676;23.268;2024-01-15T09:05:35;93961.56;;;3.46;100.00
11878;BME280;5998;42.676;23.268;2024-01-15T09:08:03;93953.22;;;3.73;100.00
11878;BME280;5998;42.676;23.268;2024-01-15T09:10:30;93932.41;;;3.49;100.00
11878;BME280;5998;42.676;23.268;2024-01-15T09:12:56;93918.38;;;3.32;100.00
11878;BME280;5998;42.676;23.268;2024-01-15T09:15:24;93923.34;;;3.50;100.00
11878;BME280;5998;42.676;23.268;2024-01-15T09:17:51;93919.47;;;3.39;100.00
11878;BME280;5998;42.676;23.268;2024-01-15T09:20:18;93910.25;;;3.28;100.00
11878;BME280;5998;42.676;23.268;2024-01-15T09:22:44;93912.91;;;3.20;100.00
11878;BME280;5998;42.676;23.268;2024-01-15T09:25:11;93903.22;;;3.15;100.00
11878;BME280;5998;42.676;23.268;2024-01-15T09:27:38;93894.56;;;3.35;100.00
11878;BME280;5998;42.676;23.268;2024-01-15T09:30:06;93910.66;;;3.56;100.00
11878;BME280;5998;42.676;23.268;2024-01-15T09:32:34;93897.38;;;3.47;100.00
11878;BME280;5998;42.676;23.268;2024-01-15T09:35:01;93883.47;;;3.80;100.00
11878;BME280;5998;42.676;23.268;2024-01-15T09:37:28;93878.03;;;3.76;100.00
11878;BME280;5998;42.676;23.268;2024-01-15T09:39:54;93884.63;;;3.70;100.00
11878;BME280;5998;42.676;23.268;2024-01-15T09:42:23;93875.44;;;3.59;100.00
11878;BME280;5998;42.676;23.268;2024-01-15T09:44:51;93865.00;;;3.83;100.00
11878;BME280;5998;42.676;23.268;2024-01-15T09:47:18;93862.84;;;3.68;100.00
11878;BME280;5998;42.676;23.268;2024-01-15T09:49:47;93844.78;;;3.82;100.00
11878;BME280;5998;42.676;23.268;2024-01-15T09:52:15;93840.25;;;3.45;100.00
11878;BME280;5998;42.676;23.268;2024-01-15T09:54:43;93840.63;;;3.26;100.00
11878;BME280;5998;42.676;23.268;2024-01-15T09:57:10;93841.75;;;3.08;100.00
11878;BME280;5998;42.676;23.268;2024-01-15T09:59:38;93809.97;;;3.20;100.00
11878;BME280;5998;42.676;23.268;2024-01-15T10:02:07;93831.56;;;3.19;100.00
11878;BME280;5998;42.676;23.268;2024-01-15T10:04:34;93845.03;;;3.14;100.00
11878;BME280;5998;42.676;23.268;2024-01-15T10:07:03;93851.75;;;3.20;100.00
11878;BME280;5998;42.676;23.268;2024-01-15T10:09:31;93823.41;;;3.32;100.00
11878;BME280;5998;42.676;23.268;2024-01-15T10:11:59;93822.88;;;3.47;100.00
11878;BME280;5998;42.676;23.268;2024-01-15T10:14:26;93822.47;;;3.66;100.00
11878;BME280;5998;42.676;23.268;2024-01-15T10:16:52;93818.31;;;3.86;100.00
11878;BME280;5998;42.676;23.268;2024-01-15T10:19:20;93822.03;;;4.23;100.00
11878;BME280;5998;42.676;23.268;2024-01-15T10:21:47;93817.09;;;4.04;100.00
11878;BME280;5998;42.676;23.268;2024-01-15T10:24:15;93801.91;;;4.04;100.00
11878;BME280;5998;42.676;23.268;2024-01-15T10:26:42;93801.81;;;3.63;100.00
11878;BME280;5998;42.676;23.268;2024-01-15T10:29:09;93789.13;;;3.60;100.00
11878;BME280;5998;42.676;23.268;2024-01-15T10:31:37;93789.84;;;3.78;100.00
11878;BME280;5998;42.676;23.268;2024-01-15T10:34:11;93793.28;;;3.78;100.00
11878;BME280;5998;42.676;23.268;2024-01-15T10:36:40;93779.97;;;3.78;100.00
11878;BME280;5998;42.676;23.268;2024-01-15T10:39:07;93777.03;;;4.21;100.00
11878;BME280;5998;42.676;23.268;2024-01-15T10:41:35;93767.81;;;3.98;100.00
11878;BME280;5998;42.676;23.268;2024-01-15T10:44:02;93786.31;;;4.56;100.00
11878;BME280;5998;42.676;23.268;2024-01-15T10:46:30;93781.59;;;4.41;100.00
11878;BME280;5998;42.676;23.268;2024-01-15T10:48:57;93779.81;;;4.45;100.00
11878;BME280;5998;42.676;23.268;2024-01-15T10:51:23;93771.75;;;4.12;100.00
11878;BME280;5998;42.676;23.268;2024-01-15T10:53:51;93756.84;;;4.20;100.00
11878;BME280;5998;42.676;23.268;2024-01-15T10:56:21;93766.06;;;4.43;100.00
11878;BME280;5998;42.676;23.268;2024-01-15T10:58:50;93760.53;;;4.81;100.00
11878;BME280;5998;42.676;23.268;2024-01-15T11:01:17;93774.22;;;4.92;100.00
11878;BME280;5998;42.676;23.268;2024-01-15T11:03:45;93755.94;;;5.14;100.00
11878;BME280;5998;42.676;23.268;2024-01-15T11:06:16;93746.84;;;4.70;100.00
11878;BME280;5998;42.676;23.268;2024-01-15T11:08:45;93743.13;;;4.30;100.00
11878;BME280;5998;42.676;23.268;2024-01-15T11:11:12;93750.91;;;4.35;100.00
11878;BME280;5998;42.676;23.268;2024-01-15T11:13:40;93738.63;;;4.43;100.00
11878;BME280;5998;42.676;23.268;2024-01-15T11:16:10;93738.88;;;4.83;100.00
11878;BME280;5998;42.676;23.268;2024-01-15T11:18:39;93746.22;;;4.53;100.00
11878;BME280;5998;42.676;23.268;2024-01-15T11:21:25;93731.94;;;5.02;100.00
11878;BME280;5998;42.676;23.268;2024-01-15T11:23:54;93733.09;;;5.38;100.00
11878;BME280;5998;42.676;23.268;2024-01-15T11:26:36;93726.72;;;5.66;100.00
11878;BME280;5998;42.676;23.268;2024-01-15T11:29:04;93724.94;;;5.58;100.00
11878;BME280;5998;42.676;23.268;2024-01-15T11:34:56;93736.06;;;5.72;100.00
11878;BME280;5998;42.676;23.268;2024-01-15T11:37:25;93729.09;;;5.44;100.00
11878;BME280;5998;42.676;23.268;2024-01-15T11:39:52;93728.88;;;5.49;100.00
11878;BME280;5998;42.676;23.268;2024-01-15T11:42:21;93713.41;;;5.54;100.00
11878;BME280;5998;42.676;23.268;2024-01-15T11:44:49;93722.41;;;5.38;100.00
11878;BME280;5998;42.676;23.268;2024-01-15T11:47:15;93717.16;;;5.53;100.00
11878;BME280;5998;42.676;23.268;2024-01-15T11:50:01;93713.69;;;5.77;100.00
11878;BME280;5998;42.676;23.268;2024-01-15T11:52:32;93691.56;;;6.01;100.00
11878;BME280;5998;42.676;23.268;2024-01-15T11:55:11;93693.78;;;5.99;100.00
11878;BME280;5998;42.676;23.268;2024-01-15T11:57:46;93687.56;;;5.94;100.00
11878;BME280;5998;42.676;23.268;2024-01-15T12:00:13;93682.78;;;5.76;100.00
11878;BME280;5998;42.676;23.268;2024-01-15T12:02:41;93697.25;;;5.75;100.00
11878;BME280;5998;42.676;23.268;2024-01-15T12:05:09;93691.44;;;5.97;100.00
11878;BME280;5998;42.676;23.268;2024-01-15T12:07:38;93680.97;;;6.04;100.00
11878;BME280;5998;42.676;23.268;2024-01-15T12:10:08;93672.78;;;5.85;100.00
11878;BME280;5998;42.676;23.268;2024-01-15T12:12:47;93671.75;;;5.89;100.00
11878;BME280;5998;42.676;23.268;2024-01-15T12:15:18;93673.31;;;5.66;100.00
11878;BME280;5998;42.676;23.268;2024-01-15T12:17:45;93657.41;;;5.58;100.00
11878;BME280;5998;42.676;23.268;2024-01-15T12:20:15;93669.56;;;5.67;100.00
11878;BME280;5998;42.676;23.268;2024-01-15T12:22:42;93667.22;;;5.66;100.00
11878;BME280;5998;42.676;23.268;2024-01-15T12:25:08;93664.41;;;5.74;100.00
11878;BME280;5998;42.676;23.268;2024-01-15T12:27:35;93676.53;;;5.84;100.00
11878;BME280;5998;42.676;23.268;2024-01-15T12:30:02;93666.69;;;6.12;100.00
11878;BME280;5998;42.676;23.268;2024-01-15T12:32:29;93661.25;;;6.09;100.00
11878;BME280;5998;42.676;23.268;2024-01-15T12:34:56;93645.25;;;5.84;100.00
11878;BME280;5998;42.676;23.268;2024-01-15T12:37:24;93647.22;;;6.12;100.00
11878;BME280;5998;42.676;23.268;2024-01-15T12:39:52;93643.19;;;6.18;100.00
11878;BME280;5998;42.676;23.268;2024-01-15T12:42:21;93643.09;;;6.14;100.00
11878;BME280;5998;42.676;23.268;2024-01-15T12:44:47;93633.22;;;6.30;100.00
11878;BME280;5998;42.676;23.268;2024-01-15T12:47:14;93638.84;;;6.41;100.00
11878;BME280;5998;42.676;23.268;2024-01-15T12:49:46;93641.72;;;6.48;100.00
11878;BME280;5998;42.676;23.268;2024-01-15T12:52:14;93628.09;;;6.53;100.00
11878;BME280;5998;42.676;23.268;2024-01-15T12:54:42;93641.63;;;6.60;100.00
11878;BME280;5998;42.676;23.268;2024-01-15T12:57:09;93632.84;;;6.60;100.00
11878;BME280;5998;42.676;23.268;2024-01-15T12:59:36;93637.75;;;6.58;100.00